Time;durP1;ratioP1;P1;durP2;ratioP2;P2;SDS_P1;SDS_P2;PMS_P1;PMS_P2;Temp;Humidity;BMP_temperature;BMP_pressure;BME280_temperature;BME280_humidity;BME280_pressure;Samples;Min_cycle;Max_cycle;Signal;HPM_P1;HPM_P2
2021/11/03 03:45:17;;;;;;;32.25;16.70;;;3.80;99.90;;;;;;5794076;24;20404;31
2021/11/03 03:47:43;;;;;;;37.40;19.10;;;3.80;99.90;;;;;;4765482;29;20048;-78
2021/11/03 03:50:10;;;;;;;29.88;14.57;;;3.80;99.90;;;;;;4772473;30;20108;-78
2021/11/03 03:52:36;;;;;;;36.97;19.00;;;3.80;99.90;;;;;;4779618;29;20043;-78
2021/11/03 03:55:05;;;;;;;30.08;16.17;;;3.80;99.90;;;;;;4779270;29;20120;-78
2021/11/03 03:57:31;;;;;;;23.85;12.40;;;3.80;99.90;;;;;;4786486;30;20077;-78
2021/11/03 03:59:57;;;;;;;22.55;12.30;;;3.80;99.90;;;;;;4794614;29;20031;-78
2021/11/03 04:02:23;;;;;;;21.63;13.35;;;3.80;99.90;;;;;;4780386;29;20084;-78
2021/11/03 04:04:49;;;;;;;19.20;11.87;;;3.80;99.90;;;;;;4796355;29;20039;-78
2021/11/03 04:07:15;;;;;;;15.25;10.20;;;3.90;99.90;;;;;;4779464;29;20069;-78
2021/11/03 04:09:41;;;;;;;27.58;15.60;;;3.90;99.90;;;;;;4794265;29;20031;-78
2021/11/03 04:12:09;;;;;;;19.73;12.48;;;3.90;99.90;;;;;;4797496;29;20096;-78
2021/11/03 04:14:35;;;;;;;26.40;16.02;;;4.00;99.90;;;;;;4808767;29;20085;-78
2021/11/03 04:17:01;;;;;;;29.88;14.57;;;4.00;99.90;;;;;;4779152;29;20054;-78
2021/11/03 04:19:26;;;;;;;19.55;12.20;;;4.00;99.90;;;;;;4791081;29;20106;-78
2021/11/03 04:21:55;;;;;;;23.25;11.57;;;4.00;99.90;;;;;;4811997;29;20058;-78
2021/11/03 04:24:29;;;;;;;28.67;14.95;;;4.00;99.90;;;;;;4796942;29;20153;-78
2021/11/03 04:26:56;;;;;;;;;;;4.00;99.90;;;;;;4782695;29;20038;-78
2021/11/03 04:29:23;;;;;;;30.50;14.57;;;3.90;99.90;;;;;;4784113;30;20206;-78
2021/11/03 04:31:51;;;;;;;28.08;15.25;;;3.90;99.90;;;;;;4793965;29;20040;-78
2021/11/03 04:34:18;;;;;;;29.17;14.40;;;3.90;99.90;;;;;;4794524;29;20108;-78
2021/11/03 04:36:45;;;;;;;;;;;4.00;99.90;;;;;;4782557;29;20227;-78
2021/11/03 04:39:11;;;;;;;19.55;12.65;;;4.00;99.90;;;;;;4796245;29;19927;-78
2021/11/03 04:41:42;;;;;;;20.75;12.40;;;4.00;99.90;;;;;;4794132;29;20036;-78
2021/11/03 04:44:08;;;;;;;24.25;13.90;;;4.00;99.90;;;;;;4793908;29;20231;-78
2021/11/03 04:46:34;;;;;;;25.80;14.70;;;4.00;99.90;;;;;;4793524;29;20128;-78
2021/11/03 04:49:00;;;;;;;20.17;12.63;;;3.90;99.90;;;;;;4786244;29;20147;-78
2021/11/03 04:51:27;;;;;;;26.53;13.93;;;3.90;99.90;;;;;;4814964;29;20054;-78
2021/11/03 04:53:53;;;;;;;24.67;12.07;;;3.90;99.90;;;;;;4796465;29;20101;-78
2021/11/03 04:56:20;;;;;;;32.20;16.07;;;3.80;99.90;;;;;;4778898;29;20284;-78
2021/11/03 04:58:49;;;;;;;30.10;16.38;;;3.80;99.90;;;;;;4804967;29;20458;-78
2021/11/03 05:01:15;;;;;;;27.50;16.52;;;3.90;99.90;;;;;;4796948;29;20239;-78
2021/11/03 05:03:41;;;;;;;31.58;16.88;;;3.90;99.90;;;;;;4796676;29;20032;-78
2021/11/03 05:06:09;;;;;;;36.53;18.80;;;3.90;99.90;;;;;;4793628;29;20043;-78
2021/11/03 05:08:35;;;;;;;31.98;16.08;;;3.90;99.90;;;;;;4793571;29;20126;-78
2021/11/03 05:11:01;;;;;;;20.65;12.52;;;3.90;99.90;;;;;;4793705;29;20133;-78
2021/11/03 05:13:29;;;;;;;26.30;12.05;;;3.90;99.90;;;;;;4788219;29;20043;-78
2021/11/03 05:15:57;;;;;;;23.08;11.38;;;4.00;99.90;;;;;;4792221;29;20031;-79
2021/11/03 05:18:23;;;;;;;21.15;11.55;;;4.00;99.90;;;;;;4787953;29;20308;-78
2021/11/03 05:20:49;;;;;;;57.88;18.60;;;4.00;99.90;;;;;;4793087;29;20047;-78
2021/11/03 05:23:15;;;;;;;29.08;15.55;;;4.00;99.90;;;;;;4778426;29;20035;-78
2021/11/03 05:25:42;;;;;;;40.45;17.33;;;4.00;99.90;;;;;;4796081;29;20031;-78
2021/11/03 05:28:12;;;;;;;67.40;16.75;;;4.10;99.90;;;;;;4785224;29;20035;-79
2021/11/03 05:30:38;;;;;;;189.27;31.63;;;4.10;99.90;;;;;;4771776;30;20317;-79
2021/11/03 05:33:04;;;;;;;168.52;26.70;;;4.10;99.90;;;;;;4777244;30;20032;-79
2021/11/03 05:35:30;;;;;;;304.75;38.25;;;4.20;99.90;;;;;;4789817;29;20031;-79
2021/11/03 05:37:56;;;;;;;165.88;26.25;;;4.20;99.90;;;;;;4792484;29;20159;-79
2021/11/03 05:40:24;;;;;;;75.07;20.83;;;4.20;99.90;;;;;;4790174;29;20043;-79
2021/11/03 05:42:50;;;;;;;321.38;40.15;;;4.20;99.90;;;;;;4792669;29;20039;-79
2021/11/03 05:45:16;;;;;;;199.52;31.15;;;4.30;99.90;;;;;;4784022;29;20115;-79
2021/11/03 05:47:42;;;;;;;233.00;33.10;;;4.30;99.90;;;;;;4781175;30;20259;-79
2021/11/03 05:50:10;;;;;;;248.55;42.22;;;4.40;99.90;;;;;;4804950;29;20103;-79
2021/11/03 05:52:36;;;;;;;74.30;24.75;;;4.50;99.90;;;;;;4797271;30;20323;-79
2021/11/03 05:55:02;;;;;;;88.88;27.65;;;4.60;99.90;;;;;;4788346;29;20112;-79
2021/11/03 05:57:31;;;;;;;122.45;33.85;;;4.60;99.90;;;;;;4794196;29;20039;-78
2021/11/03 05:59:58;;;;;;;200.20;46.05;;;4.70;99.90;;;;;;4798865;29;20093;-79
2021/11/03 06:02:24;;;;;;;98.22;28.98;;;4.90;99.90;;;;;;4791063;29;20031;-78
2021/11/03 06:04:50;;;;;;;191.27;42.97;;;5.00;99.90;;;;;;4784582;29;20127;-79
2021/11/03 06:07:17;;;;;;;105.82;31.00;;;5.10;99.90;;;;;;4782307;29;20035;-79
2021/11/03 06:09:44;;;;;;;129.85;34.08;;;5.20;99.90;;;;;;4796244;29;20031;-78
2021/11/03 06:12:12;;;;;;;236.95;46.17;;;5.30;99.90;;;;;;4795722;29;20031;-78
2021/11/03 06:14:38;;;;;;;201.77;38.85;;;5.30;99.90;;;;;;4794466;29;20031;-78
2021/11/03 06:17:04;;;;;;;261.75;47.15;;;5.40;99.90;;;;;;4786467;29;20038;-78
2021/11/03 06:19:31;;;;;;;266.02;46.95;;;5.40;99.90;;;;;;4793469;29;20043;-79
2021/11/03 06:21:56;;;;;;;199.33;40.10;;;5.50;99.90;;;;;;4797758;30;20031;-79
2021/11/03 06:24:24;;;;;;;238.80;46.85;;;5.60;99.90;;;;;;4779726;29;20274;-79
2021/11/03 06:26:50;;;;;;;233.80;47.10;;;5.70;99.90;;;;;;4789293;29;20031;-79
2021/11/03 06:29:16;;;;;;;208.70;43.08;;;5.70;99.90;;;;;;4796479;29;20043;-79
2021/11/03 06:31:42;;;;;;;201.57;42.60;;;5.80;99.90;;;;;;4797314;29;20058;-79
2021/11/03 06:34:08;;;;;;;174.55;37.60;;;5.80;99.90;;;;;;4794446;30;20215;-79
2021/11/03 06:36:36;;;;;;;239.00;49.40;;;5.90;99.90;;;;;;4790798;29;20043;-79
2021/11/03 06:39:07;;;;;;;256.98;49.47;;;5.90;99.90;;;;;;4795551;29;20051;-79
2021/11/03 06:41:36;;;;;;;184.15;36.95;;;6.00;99.90;;;;;;4785808;29;20051;-79
2021/11/03 06:44:02;;;;;;;284.45;52.22;;;6.10;99.90;;;;;;4798488;29;20099;-79
2021/11/03 06:46:29;;;;;;;246.88;48.45;;;6.20;99.90;;;;;;4786343;29;20093;-79
2021/11/03 06:48:55;;;;;;;188.95;45.17;;;6.20;99.90;;;;;;4787013;29;20347;-78
2021/11/03 06:51:21;;;;;;;221.23;42.70;;;6.40;99.90;;;;;;4784080;29;20032;-79
2021/11/03 06:53:47;;;;;;;67.97;27.90;;;6.50;99.90;;;;;;4783891;29;20102;-78
2021/11/03 06:56:12;;;;;;;194.82;39.22;;;6.60;99.90;;;;;;4785127;29;20340;-78
2021/11/03 06:58:38;;;;;;;167.00;39.78;;;6.80;99.90;;;;;;4795371;29;20110;-78
2021/11/03 07:01:04;;;;;;;166.10;41.50;;;6.90;99.90;;;;;;4782455;30;20039;-78
2021/11/03 07:03:32;;;;;;;72.45;28.50;;;7.00;99.90;;;;;;4784828;30;20047;-78
2021/11/03 07:05:58;;;;;;;129.93;36.88;;;7.10;99.90;;;;;;4777342;29;20227;-78
2021/11/03 07:08:25;;;;;;;116.35;34.97;;;7.20;99.90;;;;;;4783774;29;20032;-79
2021/11/03 07:10:54;;;;;;;66.25;27.40;;;7.30;99.90;;;;;;4797925;29;20044;-79
2021/11/03 07:13:21;;;;;;;110.60;34.78;;;7.40;99.90;;;;;;4801763;29;20043;-78
2021/11/03 07:15:48;;;;;;;111.22;37.53;;;7.40;99.90;;;;;;4786581;29;20319;-79
2021/11/03 07:18:15;;;;;;;100.88;33.92;;;7.50;99.90;;;;;;4797132;29;20057;-79
2021/11/03 07:20:42;;;;;;;102.90;35.90;;;7.60;99.90;;;;;;4784746;29;20039;-79
2021/11/03 07:23:11;;;;;;;102.43;35.30;;;7.70;99.90;;;;;;4784239;29;20118;-78
2021/11/03 07:25:37;;;;;;;79.57;31.45;;;7.80;99.90;;;;;;4799288;29;20062;-79
2021/11/03 07:28:03;;;;;;;85.65;32.58;;;7.90;99.90;;;;;;4783333;29;20024;-78
2021/11/03 07:30:32;;;;;;;91.30;34.03;;;8.00;99.90;;;;;;4802359;29;20039;-78
2021/11/03 07:32:58;;;;;;;67.13;28.15;;;8.10;99.90;;;;;;4798453;29;20387;-78
2021/11/03 07:35:25;;;;;;;79.28;32.42;;;8.20;99.90;;;;;;4782248;29;20039;-79
2021/11/03 07:37:52;;;;;;;65.50;27.30;;;8.30;99.90;;;;;;4797132;29;20038;-78
2021/11/03 07:40:23;;;;;;;59.65;28.45;;;8.40;99.90;;;;;;4803377;29;20051;-79
2021/11/03 07:42:49;;;;;;;68.25;29.60;;;8.50;99.90;;;;;;4783662;29;20040;-78
2021/11/03 07:45:16;;;;;;;58.80;28.05;;;8.50;99.90;;;;;;4778396;30;20074;-79
2021/11/03 07:47:42;;;;;;;58.30;27.42;;;8.60;99.90;;;;;;4810504;29;20047;-79
2021/11/03 07:50:14;;;;;;;57.42;28.05;;;8.60;99.90;;;;;;4817160;29;20207;-78
2021/11/03 07:52:40;;;;;;;57.83;27.20;;;8.70;99.90;;;;;;4827425;29;20066;-78
2021/11/03 07:55:06;;;;;;;75.68;30.08;;;8.80;99.90;;;;;;4817038;29;20303;-78
2021/11/03 07:57:32;;;;;;;61.10;27.87;;;8.80;99.90;;;;;;4822081;29;20348;-78
2021/11/03 07:59:57;;;;;;;58.15;26.95;;;8.90;99.90;;;;;;4816703;29;20118;-78
2021/11/03 08:02:23;;;;;;;64.00;27.52;;;8.90;99.90;;;;;;4819966;29;20109;-78
2021/11/03 08:04:49;;;;;;;64.53;27.42;;;8.90;99.90;;;;;;4809376;29;20350;-78
2021/11/03 08:07:15;;;;;;;57.95;27.42;;;9.00;99.90;;;;;;4800216;29;20047;-78
2021/11/03 08:09:46;;;;;;;66.03;29.08;;;9.00;99.90;;;;;;4816263;29;20038;-78
2021/11/03 08:12:12;;;;;;;59.92;27.65;;;9.00;99.90;;;;;;4820283;29;20031;-78
2021/11/03 08:14:38;;;;;;;56.85;28.52;;;9.00;99.90;;;;;;4812022;29;20042;-78
2021/11/03 08:17:15;;;;;;;56.10;26.88;;;9.10;99.90;;;;;;4817555;29;20044;-78
2021/11/03 08:19:46;;;;;;;45.67;22.70;;;9.00;99.90;;;;;;4832653;29;20057;-78
2021/11/03 08:22:13;;;;;;;44.63;23.63;;;9.10;99.90;;;;;;4820712;29;20041;-78
2021/11/03 08:24:39;;;;;;;47.88;25.05;;;9.00;99.90;;;;;;4830921;29;20365;-78
2021/11/03 08:27:06;;;;;;;51.65;25.80;;;9.00;99.90;;;;;;4816029;29;20064;-78
2021/11/03 08:29:32;;;;;;;51.72;24.02;;;9.00;99.90;;;;;;4814776;29;20227;-78
2021/11/03 08:31:59;;;;;;;44.47;24.47;;;9.10;99.90;;;;;;4827987;29;20113;-78
2021/11/03 08:34:30;;;;;;;49.08;23.98;;;9.10;99.90;;;;;;4832328;29;20066;-78
2021/11/03 08:37:05;;;;;;;45.25;24.35;;;9.10;99.90;;;;;;4826408;29;20376;-77
2021/11/03 08:39:33;;;;;;;47.72;23.75;;;9.10;99.90;;;;;;4829756;29;20042;-77
2021/11/03 08:41:59;;;;;;;48.70;24.13;;;9.20;99.90;;;;;;4807732;29;20026;-77
2021/11/03 08:44:27;;;;;;;39.67;22.92;;;9.20;99.90;;;;;;4816814;29;20144;-78
2021/11/03 08:46:52;;;;;;;41.08;23.38;;;9.20;99.90;;;;;;4828545;29;20396;-78
2021/11/03 08:49:18;;;;;;;41.08;23.85;;;9.30;99.90;;;;;;4789095;29;20035;-78
2021/11/03 08:51:44;;;;;;;38.97;21.83;;;9.30;99.90;;;;;;4822741;29;20035;-78
2021/11/03 08:54:10;;;;;;;35.03;22.35;;;9.40;99.90;;;;;;4805352;29;20031;-78
2021/11/03 08:56:37;;;;;;;38.03;22.13;;;9.40;99.90;;;;;;4799278;29;20091;-78
2021/11/03 08:59:08;;;;;;;33.28;19.90;;;9.40;99.90;;;;;;4803429;29;20031;-78
2021/11/03 09:01:33;;;;;;;38.03;20.58;;;9.50;99.90;;;;;;4813992;29;20074;-78
2021/11/03 09:03:59;;;;;;;36.30;22.63;;;9.60;99.90;;;;;;4821436;29;20251;-78
2021/11/03 09:06:25;;;;;;;34.40;18.27;;;9.70;99.90;;;;;;4814849;29;20237;-78
2021/11/03 09:08:51;;;;;;;28.80;19.67;;;9.80;99.90;;;;;;4810798;29;20027;-78
2021/11/03 09:11:19;;;;;;;28.73;18.50;;;9.80;99.90;;;;;;4813257;29;20083;-78
2021/11/03 09:13:45;;;;;;;30.38;17.48;;;9.90;99.90;;;;;;4828951;29;20301;-78
2021/11/03 09:16:10;;;;;;;27.35;17.95;;;9.90;99.90;;;;;;4821454;29;20038;-78
2021/11/03 09:18:37;;;;;;;25.60;17.13;;;10.00;99.90;;;;;;4811986;29;20275;-78
2021/11/03 09:21:08;;;;;;;23.30;16.90;;;10.10;99.90;;;;;;4816589;29;20038;-78
2021/11/03 09:23:35;;;;;;;28.20;17.52;;;10.10;99.90;;;;;;4831902;29;20041;-78
2021/11/03 09:26:01;;;;;;;27.92;17.83;;;10.00;99.90;;;;;;4832560;29;20039;-77
2021/11/03 09:28:29;;;;;;;23.45;15.65;;;10.10;99.90;;;;;;4831314;29;20133;-78
2021/11/03 09:30:57;;;;;;;25.40;15.45;;;10.00;99.90;;;;;;4831671;29;20071;-78
2021/11/03 09:33:23;;;;;;;;;;;10.10;99.90;;;;;;4814497;29;20102;-78
2021/11/03 09:35:51;;;;;;;23.10;15.48;;;10.20;99.90;;;;;;4811647;29;19944;-78
2021/11/03 09:38:23;;;;;;;26.50;14.95;;;10.30;99.90;;;;;;4831043;29;20046;-78
2021/11/03 09:40:52;;;;;;;24.52;15.02;;;10.20;99.90;;;;;;4821637;29;20062;-78
2021/11/03 09:43:25;;;;;;;24.35;15.25;;;10.20;99.90;;;;;;4802600;29;20235;-78
2021/11/03 09:45:51;;;;;;;21.35;14.05;;;10.40;99.90;;;;;;4818511;29;20062;-78
2021/11/03 09:48:23;;;;;;;19.80;14.00;;;10.50;99.90;;;;;;4810539;29;20042;-78
2021/11/03 09:50:53;;;;;;;23.60;12.65;;;10.50;99.90;;;;;;4812458;29;20035;-79
2021/11/03 09:53:37;;;;;;;21.75;12.73;;;10.50;99.90;;;;;;4817173;29;20043;-78
2021/11/03 09:56:09;;;;;;;19.70;12.80;;;10.50;99.90;;;;;;4819302;29;20319;-79
2021/11/03 09:58:43;;;;;;;18.92;13.02;;;10.60;99.90;;;;;;4800591;29;20037;-79
2021/11/03 10:01:36;;;;;;;16.23;12.13;;;10.60;99.90;;;;;;4809184;29;20030;-79
2021/11/03 10:04:25;;;;;;;16.17;11.75;;;10.80;99.90;;;;;;4809628;29;20049;-78
2021/11/03 10:07:03;;;;;;;18.50;11.75;;;10.90;99.90;;;;;;4826215;29;20547;-79
2021/11/03 10:09:28;;;;;;;17.65;11.40;;;11.10;99.90;;;;;;4799718;29;20035;-78
2021/11/03 10:12:17;;;;;;;14.60;10.25;;;11.20;99.90;;;;;;4819393;29;20105;-79
2021/11/03 10:14:44;;;;;;;15.25;10.68;;;11.20;99.90;;;;;;4789198;29;20087;-79
2021/11/03 10:17:23;;;;;;;;;;;11.40;99.90;;;;;;4767691;30;20043;-79
2021/11/03 10:19:51;;;;;;;16.02;9.38;;;11.40;99.90;;;;;;4797227;29;19918;-79
2021/11/03 10:22:36;;;;;;;;;;;11.60;99.90;;;;;;4779873;30;20027;-78
2021/11/03 10:25:23;;;;;;;10.07;7.97;;;11.80;99.90;;;;;;4777954;30;19925;-78
2021/11/03 10:27:55;;;;;;;10.52;7.75;;;12.30;99.90;;;;;;4780960;30;20023;-79
2021/11/03 10:30:27;;;;;;;12.88;8.00;;;12.60;99.90;;;;;;4779415;30;20048;-78
2021/11/03 10:32:54;;;;;;;11.23;7.55;;;12.70;99.90;;;;;;4780480;30;20031;-78
2021/11/03 10:35:38;;;;;;;10.40;7.13;;;12.90;99.50;;;;;;4778225;30;20126;-78
2021/11/03 10:38:19;;;;;;;10.82;7.35;;;12.90;98.60;;;;;;4778949;30;20035;-78
2021/11/03 10:41:02;;;;;;;14.23;7.97;;;13.00;98.30;;;;;;4781513;30;20035;-78
2021/11/03 10:43:34;;;;;;;10.25;7.78;;;12.90;98.10;;;;;;4781410;30;20136;-79
2021/11/03 10:46:13;;;;;;;21.25;7.30;;;13.00;98.10;;;;;;4819340;29;20411;-78
2021/11/03 10:48:49;;;;;;;11.63;7.38;;;13.10;98.00;;;;;;4834630;29;20030;-78
2021/11/03 10:51:20;;;;;;;11.93;8.05;;;13.20;97.60;;;;;;4826478;29;20058;-79
2021/11/03 10:53:54;;;;;;;9.77;6.90;;;13.10;97.50;;;;;;4827591;29;20030;-78
2021/11/03 10:56:33;;;;;;;10.10;7.60;;;13.10;97.90;;;;;;4814974;29;20109;-78
2021/11/03 10:59:27;;;;;;;9.07;7.35;;;13.10;97.40;;;;;;4831874;29;20026;-78
2021/11/03 11:01:54;;;;;;;11.93;7.07;;;13.10;97.60;;;;;;4812296;29;20110;-78
2021/11/03 11:04:34;;;;;;;9.65;6.53;;;12.90;97.80;;;;;;4828534;29;20105;-79
2021/11/03 11:07:43;;;;;;;13.27;7.00;;;13.00;97.90;;;;;;4829010;29;20071;-78
2021/11/03 11:10:23;;;;;;;10.70;6.80;;;13.10;97.90;;;;;;4745550;30;20343;-78
2021/11/03 11:12:56;;;;;;;9.30;6.10;;;13.20;98.00;;;;;;4744071;30;20044;-78
2021/11/03 11:15:34;;;;;;;10.68;6.57;;;13.30;97.90;;;;;;4744557;30;20109;-78
2021/11/03 11:18:16;;;;;;;7.45;5.70;;;13.40;97.70;;;;;;4759913;30;20073;-79
2021/11/03 11:20:48;;;;;;;9.02;5.97;;;13.50;96.70;;;;;;4744743;30;20032;-79
2021/11/03 11:23:33;;;;;;;12.00;6.95;;;13.40;97.00;;;;;;4730452;30;20288;-78
2021/11/03 11:26:12;;;;;;;7.40;6.03;;;13.30;97.00;;;;;;4759274;30;20112;-79
2021/11/03 11:29:15;;;;;;;12.07;6.38;;;13.40;97.40;;;;;;4758437;30;20071;-79
2021/11/03 11:32:03;;;;;;;9.20;6.38;;;13.50;97.10;;;;;;4758474;30;20448;-79
2021/11/03 11:34:40;;;;;;;13.88;7.95;;;13.40;96.90;;;;;;4730249;30;20073;-79
2021/11/03 11:37:31;;;;;;;12.35;7.07;;;13.40;97.10;;;;;;4748769;30;20075;-78
2021/11/03 11:40:27;;;;;;;10.75;7.25;;;13.40;96.80;;;;;;4758336;30;20894;-78
2021/11/03 11:42:59;;;;;;;12.35;7.45;;;13.30;97.00;;;;;;4759604;30;20032;-78
2021/11/03 11:45:35;;;;;;;20.50;6.32;;;13.20;97.30;;;;;;4759613;30;20083;-79
2021/11/03 11:48:39;;;;;;;11.13;6.97;;;13.20;97.00;;;;;;4811286;29;20235;-79
2021/11/03 11:51:09;;;;;;;15.20;7.32;;;13.30;97.50;;;;;;4813994;29;20038;-79
2021/11/03 11:53:38;;;;;;;8.48;6.28;;;13.30;97.40;;;;;;4828809;29;20079;-79
2021/11/03 11:56:13;;;;;;;11.75;6.25;;;13.30;97.20;;;;;;4821510;29;20034;-78
2021/11/03 11:58:45;;;;;;;10.30;6.75;;;13.30;97.30;;;;;;4833120;29;20030;-78
2021/11/03 12:01:14;;;;;;;10.45;6.60;;;13.30;97.50;;;;;;4829123;29;20079;-78
2021/11/03 12:04:03;;;;;;;13.45;7.68;;;13.30;97.40;;;;;;4822506;29;20034;-78
2021/11/03 12:06:38;;;;;;;10.73;6.05;;;13.30;97.30;;;;;;4830104;29;20034;-78
2021/11/03 12:09:31;;;;;;;11.80;6.70;;;13.30;97.20;;;;;;4815353;29;20338;-78
2021/11/03 12:11:57;;;;;;;14.60;7.20;;;13.30;97.10;;;;;;4827759;29;20022;-79
2021/11/03 12:14:23;;;;;;;12.67;6.97;;;13.20;97.20;;;;;;4810697;29;20045;-79
2021/11/03 12:17:07;;;;;;;18.27;8.35;;;13.20;97.30;;;;;;4814689;29;20057;-78
2021/11/03 12:19:36;;;;;;;12.57;7.28;;;13.30;97.20;;;;;;4816345;29;20022;-80
2021/11/03 12:22:12;;;;;;;11.43;7.05;;;13.30;97.10;;;;;;4828274;29;20066;-79
2021/11/03 12:24:40;;;;;;;17.10;7.95;;;13.20;97.20;;;;;;4826995;29;20064;-79
2021/11/03 12:27:23;;;;;;;11.40;7.93;;;13.20;97.50;;;;;;4827406;29;20029;-79
2021/11/03 12:29:59;;;;;;;15.40;6.90;;;13.20;97.40;;;;;;4814700;29;20098;-78
2021/11/03 12:32:45;;;;;;;16.42;8.43;;;13.20;97.70;;;;;;4800321;29;20083;-79
2021/11/03 12:35:20;;;;;;;10.33;6.83;;;13.30;97.70;;;;;;4756597;30;20157;-79
2021/11/03 12:37:50;;;;;;;14.05;7.00;;;13.30;97.50;;;;;;4767975;30;20040;-79
2021/11/03 12:40:34;;;;;;;13.25;7.00;;;13.30;97.60;;;;;;4772480;30;20212;-79
2021/11/03 12:43:21;;;;;;;13.52;6.60;;;13.40;97.50;;;;;;4759493;30;20035;-79
2021/11/03 12:46:02;;;;;;;15.27;6.65;;;13.50;97.70;;;;;;4758584;30;20321;-79
2021/11/03 12:48:34;;;;;;;10.25;6.10;;;13.50;97.30;;;;;;4762788;30;20051;-79
2021/11/03 12:51:00;;;;;;;12.30;6.40;;;13.50;97.30;;;;;;4762672;30;20283;-79
2021/11/03 12:53:31;;;;;;;16.52;7.07;;;13.60;97.30;;;;;;4744576;30;20044;-79
2021/11/03 12:56:01;;;;;;;10.88;6.97;;;13.70;96.90;;;;;;4772797;30;20095;-79
2021/11/03 12:58:37;;;;;;;10.00;6.05;;;13.70;96.70;;;;;;4755753;30;20028;-79
2021/11/03 13:01:26;;;;;;;11.27;5.65;;;13.70;96.60;;;;;;4769086;30;20036;-79
2021/11/03 13:04:02;;;;;;;14.40;5.65;;;13.80;96.80;;;;;;4770448;30;20032;-80
2021/11/03 13:06:35;;;;;;;10.48;5.43;;;14.00;96.60;;;;;;4762056;30;20070;-79
2021/11/03 13:09:02;;;;;;;11.30;6.15;;;14.10;96.00;;;;;;4756592;30;20072;-79
2021/11/03 13:11:36;;;;;;;9.57;5.72;;;14.20;96.10;;;;;;4781434;29;20057;-80
2021/11/03 13:14:18;;;;;;;9.55;5.72;;;14.30;95.70;;;;;;4827725;29;20023;-80
2021/11/03 13:16:47;;;;;;;12.45;5.07;;;14.30;95.80;;;;;;4813608;29;20346;-79
2021/11/03 13:19:31;;;;;;;10.93;5.55;;;14.40;95.60;;;;;;4829879;29;20191;-79
2021/11/03 13:21:59;;;;;;;12.00;5.07;;;14.40;95.20;;;;;;4810641;29;20087;-79
2021/11/03 13:24:36;;;;;;;7.07;4.70;;;14.40;95.50;;;;;;4829640;29;20026;-79
2021/11/03 13:27:13;;;;;;;;;;;14.50;95.20;;;;;;4811131;29;20035;-79
2021/11/03 13:29:39;;;;;;;;;;;14.50;95.00;;;;;;4828933;29;19916;-79
2021/11/03 13:32:28;;;;;;;8.05;5.45;;;14.40;94.80;;;;;;4812641;29;19975;-79
2021/11/03 13:35:04;;;;;;;9.80;5.13;;;14.40;95.00;;;;;;4813115;29;20045;-79
2021/11/03 13:37:37;;;;;;;13.00;5.15;;;14.40;95.00;;;;;;4824502;29;20276;-80
2021/11/03 13:40:09;;;;;;;8.63;3.97;;;14.20;95.30;;;;;;4827872;29;20037;-79
2021/11/03 13:43:05;;;;;;;8.38;5.00;;;14.20;95.20;;;;;;4814586;29;20141;-80
2021/11/03 13:45:36;;;;;;;9.60;5.05;;;14.10;95.40;;;;;;4826329;29;20071;-78
2021/11/03 13:48:17;;;;;;;14.73;4.97;;;14.10;95.60;;;;;;4828302;29;20038;-79
2021/11/03 13:50:58;;;;;;;8.85;5.40;;;14.00;95.60;;;;;;4810860;29;20091;-79
2021/11/03 13:53:33;;;;;;;16.92;5.35;;;14.00;95.60;;;;;;4822902;29;20030;-80
2021/11/03 13:56:02;;;;;;;11.18;5.60;;;13.90;95.60;;;;;;4823381;29;20030;-79
2021/11/03 13:58:34;;;;;;;8.85;5.13;;;13.90;95.70;;;;;;4827799;29;20222;-78
2021/11/03 14:01:16;;;;;;;17.48;5.72;;;13.90;95.80;;;;;;4829692;29;20049;-79
2021/11/03 14:04:13;;;;;;;14.75;5.85;;;13.90;96.00;;;;;;4804110;29;20040;-79
2021/11/03 14:07:00;;;;;;;13.05;5.13;;;13.80;96.00;;;;;;4795309;30;20110;-79
2021/11/03 14:09:27;;;;;;;11.30;5.47;;;13.80;96.30;;;;;;4798761;29;20286;-80
2021/11/03 14:11:57;;;;;;;17.73;6.05;;;13.80;96.30;;;;;;4784200;29;20267;-79
2021/11/03 14:14:25;;;;;;;16.63;6.00;;;13.80;96.40;;;;;;4785909;29;20358;-79
2021/11/03 14:16:54;;;;;;;21.80;5.35;;;13.80;96.40;;;;;;4793674;29;20035;-79
2021/11/03 14:19:27;;;;;;;9.48;5.63;;;13.90;96.30;;;;;;4795326;29;20289;-79
2021/11/03 14:21:55;;;;;;;9.27;4.85;;;13.80;96.50;;;;;;4788493;29;20039;-81
2021/11/03 14:24:22;;;;;;;10.55;5.20;;;13.80;96.40;;;;;;4793910;29;20057;-80
2021/11/03 14:26:48;;;;;;;11.57;4.88;;;13.80;96.50;;;;;;4798657;29;20038;-80
2021/11/03 14:29:15;;;;;;;16.13;4.97;;;13.80;96.40;;;;;;4800172;29;20039;-80
2021/11/03 14:31:43;;;;;;;8.53;5.17;;;13.70;96.50;;;;;;4777740;29;20335;-79
2021/11/03 14:34:31;;;;;;;11.05;4.93;;;13.80;96.50;;;;;;4792535;29;20510;-79
2021/11/03 14:36:57;;;;;;;9.73;4.18;;;13.70;96.70;;;;;;4817696;29;20222;-80
2021/11/03 14:39:28;;;;;;;9.47;4.60;;;13.70;96.70;;;;;;4834422;29;20042;-80
2021/11/03 14:41:57;;;;;;;7.78;4.50;;;13.70;96.70;;;;;;4826358;29;20042;-80
2021/11/03 14:44:24;;;;;;;9.73;4.05;;;13.70;96.90;;;;;;4808589;29;20030;-79
2021/11/03 14:46:59;;;;;;;15.25;5.20;;;13.70;96.90;;;;;;4821452;29;20070;-79
2021/11/03 14:49:43;;;;;;;12.32;4.25;;;13.70;97.00;;;;;;4809774;29;20027;-80
2021/11/03 14:52:14;;;;;;;8.73;4.68;;;13.70;97.00;;;;;;4806823;29;20230;-80
2021/11/03 14:54:40;;;;;;;10.98;5.20;;;13.70;97.10;;;;;;4780260;29;20039;-79
2021/11/03 14:57:16;;;;;;;10.73;4.30;;;13.60;97.30;;;;;;4801871;29;20262;-79
2021/11/03 14:59:52;;;;;;;10.18;5.65;;;13.70;97.40;;;;;;4792754;29;20035;-80
2021/11/03 15:02:21;;;;;;;8.55;4.45;;;13.70;97.30;;;;;;4811456;29;20035;-81
2021/11/03 15:04:47;;;;;;;13.45;5.35;;;13.80;97.30;;;;;;4790189;29;20060;-81
2021/11/03 15:07:13;;;;;;;16.13;4.97;;;13.80;97.20;;;;;;4808973;29;20031;-80
2021/11/03 15:09:40;;;;;;;22.05;5.50;;;13.80;97.20;;;;;;4797319;30;20027;-80
2021/11/03 15:12:07;;;;;;;17.13;6.32;;;13.70;97.40;;;;;;4801269;29;20062;-81
2021/11/03 15:14:35;;;;;;;9.68;5.45;;;13.70;97.60;;;;;;4804536;29;20031;-80
2021/11/03 15:17:05;;;;;;;8.45;4.93;;;13.70;97.80;;;;;;4793260;29;20043;-80
2021/11/03 15:19:39;;;;;;;13.48;5.65;;;13.70;97.90;;;;;;4802122;29;20031;-80
2021/11/03 15:22:06;;;;;;;12.65;5.28;;;13.70;98.10;;;;;;4809998;29;20102;-80
2021/11/03 15:24:35;;;;;;;11.55;5.60;;;13.60;98.40;;;;;;4803879;29;20105;-80
2021/11/03 15:27:01;;;;;;;10.18;5.40;;;13.60;98.60;;;;;;4810526;29;20064;-80
2021/11/03 15:29:27;;;;;;;9.35;5.55;;;13.60;98.80;;;;;;4802637;29;20335;-81
2021/11/03 15:31:59;;;;;;;15.13;5.73;;;13.60;98.70;;;;;;4814740;29;20405;-80
2021/11/03 15:34:29;;;;;;;11.35;6.13;;;13.60;98.90;;;;;;4786516;30;20268;-80
2021/11/03 15:36:55;;;;;;;12.40;6.28;;;13.60;99.10;;;;;;4803043;29;20056;-80
2021/11/03 15:39:34;;;;;;;14.30;7.40;;;13.60;99.10;;;;;;4797627;29;20027;-80
2021/11/03 15:42:04;;;;;;;15.40;7.53;;;13.60;99.20;;;;;;4810491;29;20027;-81
2021/11/03 15:44:30;;;;;;;12.73;6.80;;;13.70;99.20;;;;;;4811027;29;20027;-80
2021/11/03 15:46:57;;;;;;;10.90;6.15;;;13.70;99.20;;;;;;4803863;29;20058;-80
2021/11/03 15:49:36;;;;;;;16.17;7.13;;;13.70;99.20;;;;;;4812977;29;20031;-79
2021/11/03 15:52:06;;;;;;;12.10;6.65;;;13.70;99.30;;;;;;4800616;29;20310;-80
2021/11/03 15:54:33;;;;;;;15.45;7.10;;;13.70;99.40;;;;;;4809230;29;20034;-80
2021/11/03 15:57:04;;;;;;;18.20;6.53;;;13.70;99.40;;;;;;4797282;29;20031;-79
2021/11/03 15:59:30;;;;;;;15.30;7.07;;;13.70;99.50;;;;;;4795006;29;20357;-80
2021/11/03 16:01:58;;;;;;;12.68;5.93;;;13.70;99.50;;;;;;4816865;29;20044;-80
2021/11/03 16:04:34;;;;;;;17.15;6.18;;;13.70;99.50;;;;;;4802435;29;20023;-79
2021/11/03 16:07:04;;;;;;;11.77;5.88;;;13.70;99.40;;;;;;4794860;29;20108;-79
2021/11/03 16:09:33;;;;;;;12.02;6.53;;;13.70;99.50;;;;;;4785121;30;20380;-79
2021/11/03 16:12:01;;;;;;;12.52;6.18;;;13.70;99.40;;;;;;4806961;29;20062;-79
2021/11/03 16:14:35;;;;;;;16.65;6.00;;;13.70;99.30;;;;;;4814032;29;20342;-80
2021/11/03 16:17:07;;;;;;;12.32;5.97;;;13.70;99.10;;;;;;4803150;29;20782;-80
2021/11/03 16:19:35;;;;;;;14.07;6.28;;;13.70;99.00;;;;;;4805564;29;20027;-80
2021/11/03 16:22:33;;;;;;;26.05;6.35;;;13.80;99.00;;;;;;4814114;29;20041;-79
2021/11/03 16:25:00;;;;;;;15.07;6.10;;;13.90;98.70;;;;;;4759964;30;20371;-80
2021/11/03 16:27:30;;;;;;;10.43;6.07;;;13.90;98.70;;;;;;4744319;30;20347;-80
2021/11/03 16:29:56;;;;;;;16.35;6.63;;;13.90;98.40;;;;;;4739791;30;20367;-80
2021/11/03 16:32:23;;;;;;;13.20;5.83;;;13.90;98.50;;;;;;4744815;30;20411;-79
2021/11/03 16:34:49;;;;;;;11.57;6.03;;;13.90;98.40;;;;;;4745144;30;20353;-79
2021/11/03 16:37:15;;;;;;;14.00;6.35;;;14.00;98.50;;;;;;4730138;30;20051;-81
2021/11/03 16:39:42;;;;;;;17.30;7.13;;;13.90;98.70;;;;;;4732457;30;20086;-79
2021/11/03 16:42:31;;;;;;;14.73;6.55;;;13.90;98.90;;;;;;4733799;30;20048;-79